createdAt,value
2019-05-09T00:01:18.156Z,98827.05
2019-05-09T00:03:44.355Z,98825.30
2019-05-09T00:06:09.132Z,98826.91
2019-05-09T00:08:33.675Z,98828.13
2019-05-09T00:10:58.326Z,98832.00
2019-05-09T00:13:23.706Z,98830.34
2019-05-09T00:15:49.006Z,98831.06
2019-05-09T00:18:14.260Z,98830.89
2019-05-09T00:20:40.640Z,98825.94
2019-05-09T00:23:05.287Z,98837.33
2019-05-09T00:25:30.009Z,98832.28
2019-05-09T00:27:54.501Z,98827.92
2019-05-09T00:30:22.703Z,98822.22
2019-05-09T00:32:48.884Z,98825.83
2019-05-09T00:35:33.903Z,98824.58
2019-05-09T00:38:05.517Z,98827.65
2019-05-09T00:40:30.060Z,98824.45
2019-05-09T00:42:54.912Z,98825.13
2019-05-09T00:45:26.935Z,98831.55
2019-05-09T00:47:51.453Z,98825.71
2019-05-09T00:50:16.675Z,98834.61
2019-05-09T00:52:43.037Z,98831.54
2019-05-09T00:55:07.529Z,98831.33
2019-05-09T00:57:34.706Z,98836.23
2019-05-09T00:59:59.156Z,98842.37
2019-05-09T01:02:23.655Z,98844.07
2019-05-09T01:04:48.073Z,98840.94
2019-05-09T01:07:13.931Z,98843.64
2019-05-09T01:09:38.538Z,98837.13
2019-05-09T01:12:04.096Z,98840.16
2019-05-09T01:14:29.066Z,98835.39
2019-05-09T01:16:53.683Z,98834.33
2019-05-09T01:19:18.254Z,98838.08
2019-05-09T01:21:43.795Z,98842.67
2019-05-09T01:24:08.856Z,98846.48
2019-05-09T01:26:33.589Z,98845.30
2019-05-09T01:28:58.005Z,98853.60
2019-05-09T01:31:24.048Z,98846.61
2019-05-09T01:33:59.392Z,98846.09
2019-05-09T01:36:23.929Z,98841.09
2019-05-09T01:38:48.423Z,98843.84
2019-05-09T01:41:27.095Z,98849.33
2019-05-09T01:43:39.086Z,98855.03
2019-05-09T01:46:04.508Z,98864.88
2019-05-09T01:48:29.110Z,98867.67
2019-05-09T01:50:53.886Z,98868.41
2019-05-09T01:53:19.946Z,98868.20
2019-05-09T01:56:00.259Z,98873.72
2019-05-09T01:58:24.748Z,98868.98
2019-05-09T02:00:49.306Z,98865.73
2019-05-09T02:03:14.016Z,98873.63
2019-05-09T02:05:38.596Z,98869.88
2019-05-09T02:08:03.396Z,98863.38
2019-05-09T02:10:27.917Z,98867.91
2019-05-09T02:12:53.765Z,98865.81
2019-05-09T02:15:20.087Z,98823.46
2019-05-09T02:17:58.921Z,98833.92
2019-05-09T02:20:18.094Z,98873.66
2019-05-09T02:22:43.501Z,98870.08
2019-05-09T02:25:09.779Z,98876.69
2019-05-09T02:27:34.618Z,98879.20
2019-05-09T02:29:59.161Z,98879.52
2019-05-09T02:32:24.148Z,98882.26
2019-05-09T02:34:48.857Z,98882.58
2019-05-09T02:37:13.367Z,98889.64
2019-05-09T02:39:39.429Z,98892.40
2019-05-09T02:42:09.647Z,98891.33
2019-05-09T02:44:30.212Z,98890.67
2019-05-09T02:46:58.929Z,98884.38
2019-05-09T02:49:22.453Z,98886.70
2019-05-09T02:51:48.815Z,98885.70
2019-05-09T02:54:13.129Z,98871.73
2019-05-09T02:56:38.548Z,98884.27
2019-05-09T02:59:11.000Z,98887.73
2019-05-09T03:01:40.212Z,98863.64
2019-05-09T03:04:04.852Z,98887.87
2019-05-09T03:06:29.464Z,98889.61
2019-05-09T03:08:54.030Z,98896.22
2019-05-09T03:11:18.912Z,98896.27
2019-05-09T03:13:43.547Z,98896.66
2019-05-09T03:16:09.869Z,98899.17
2019-05-09T03:18:34.415Z,98895.77
2019-05-09T03:21:01.301Z,98890.55
2019-05-09T03:23:28.543Z,98897.91
2019-05-09T03:25:52.029Z,98895.13
2019-05-09T03:28:21.015Z,98895.54
2019-05-09T03:30:50.102Z,98893.16
2019-05-09T03:33:13.340Z,98891.30
2019-05-09T03:35:37.951Z,98893.40
2019-05-09T03:38:08.124Z,98899.05
2019-05-09T03:40:33.193Z,98901.80
2019-05-09T03:42:57.706Z,98908.63
2019-05-09T03:45:22.239Z,98911.67
2019-05-09T03:47:48.452Z,98904.77
2019-05-09T03:50:19.846Z,98906.66
2019-05-09T03:52:47.756Z,98903.37
2019-05-09T03:55:14.072Z,98906.64
2019-05-09T03:57:58.094Z,98905.16
2019-05-09T04:00:23.128Z,98905.95
2019-05-09T04:02:47.617Z,98910.73
2019-05-09T04:05:12.176Z,98843.37
2019-05-09T04:07:38.416Z,98904.54
2019-05-09T04:10:03.012Z,98915.16
2019-05-09T04:12:28.314Z,98928.55
2019-05-09T04:14:52.939Z,98923.95
2019-05-09T04:17:18.118Z,98926.23
2019-05-09T04:19:42.935Z,98890.55
2019-05-09T04:22:08.113Z,98931.34
2019-05-09T04:24:33.060Z,98930.34
2019-05-09T04:27:08.318Z,98936.55
2019-05-09T04:29:32.734Z,98935.36
2019-05-09T04:31:57.586Z,98935.86
2019-05-09T04:34:22.087Z,98937.30
2019-05-09T04:36:48.394Z,98933.97
2019-05-09T04:39:21.501Z,98940.11
2019-05-09T04:41:40.091Z,98942.74
2019-05-09T04:44:16.607Z,98944.33
2019-05-09T04:46:33.742Z,98944.95
2019-05-09T04:48:59.335Z,98943.95
2019-05-09T04:51:24.383Z,98943.17
2019-05-09T04:53:48.849Z,98951.45
2019-05-09T04:56:23.806Z,98947.66
2019-05-09T04:58:48.412Z,98956.78
2019-05-09T05:01:23.765Z,98968.30
2019-05-09T05:03:49.420Z,98970.03
2019-05-09T05:06:13.936Z,98960.48
2019-05-09T05:08:38.416Z,98967.11
2019-05-09T05:11:02.923Z,98966.95
2019-05-09T05:13:29.792Z,98965.14
2019-05-09T05:15:53.562Z,98967.64
2019-05-09T05:18:20.299Z,98970.04
2019-05-09T05:20:44.193Z,98961.98
2019-05-09T05:23:10.315Z,98963.19
2019-05-09T05:25:34.748Z,98964.94
2019-05-09T05:27:59.299Z,98967.94
2019-05-09T05:30:23.873Z,98975.48
2019-05-09T05:32:50.026Z,98978.46
2019-05-09T05:35:25.374Z,98982.84
2019-05-09T05:37:50.194Z,98983.39
2019-05-09T05:40:14.889Z,98986.64
2019-05-09T05:42:39.369Z,98986.02
2019-05-09T05:45:04.954Z,98989.73
2019-05-09T05:47:48.373Z,98984.99
2019-05-09T05:50:12.494Z,98995.50
2019-05-09T05:52:37.773Z,99001.91
2019-05-09T05:55:07.586Z,98995.32
2019-05-09T05:57:32.197Z,98986.63
2019-05-09T05:59:58.566Z,98996.27
2019-05-09T06:02:22.883Z,98995.65
2019-05-09T06:04:48.630Z,98995.08
2019-05-09T06:07:13.482Z,99012.19
2019-05-09T06:09:38.198Z,99008.09
2019-05-09T06:12:02.821Z,99010.41
2019-05-09T06:14:28.594Z,99014.45
2019-05-09T06:16:53.311Z,99017.36
2019-05-09T06:19:18.326Z,99023.14
2019-05-09T06:21:42.942Z,99026.16
2019-05-09T06:24:08.549Z,99025.70
2019-05-09T06:26:33.333Z,98986.78
2019-05-09T06:28:57.819Z,99035.17
2019-05-09T06:31:22.362Z,99037.53
2019-05-09T06:33:53.226Z,99036.78
2019-05-09T06:36:13.298Z,99032.26
2019-05-09T06:38:37.889Z,99031.41
2019-05-09T06:41:02.436Z,99037.15
2019-05-09T06:43:30.293Z,99026.98
2019-05-09T06:46:11.273Z,99030.04
2019-05-09T06:48:38.226Z,99037.14
2019-05-09T06:51:04.487Z,99034.39
2019-05-09T06:53:37.845Z,99039.16
2019-05-09T06:55:58.066Z,99042.41
2019-05-09T06:58:38.253Z,99043.27
2019-05-09T07:01:12.038Z,99044.39
2019-05-09T07:03:44.444Z,99039.37
2019-05-09T07:06:28.431Z,99049.53
2019-05-09T07:08:54.681Z,99008.91
2019-05-09T07:11:19.399Z,99038.82
2019-05-09T07:13:43.987Z,99043.74
2019-05-09T07:16:08.943Z,99043.27
2019-05-09T07:18:33.589Z,99045.20
2019-05-09T07:20:58.047Z,99037.97
2019-05-09T07:23:22.563Z,99034.06
2019-05-09T07:25:48.737Z,99035.39
2019-05-09T07:28:13.328Z,99033.17
2019-05-09T07:30:47.964Z,99046.33
2019-05-09T07:33:19.606Z,99036.56
2019-05-09T07:35:44.083Z,99046.33
2019-05-09T07:38:08.766Z,99043.44
2019-05-09T07:40:33.314Z,99039.88
2019-05-09T07:42:58.512Z,99045.27
2019-05-09T07:45:23.117Z,99046.67
2019-05-09T07:47:47.947Z,99049.60
2019-05-09T07:50:12.935Z,99045.25
2019-05-09T07:52:38.779Z,99045.42
2019-05-09T07:55:04.412Z,99046.85
2019-05-09T07:57:28.867Z,99047.67
2019-05-09T07:59:53.302Z,99046.74
2019-05-09T08:02:17.916Z,99056.57
2019-05-09T08:04:42.346Z,99064.38
2019-05-09T08:07:08.381Z,99068.00
2019-05-09T08:09:33.158Z,99065.95
2019-05-09T08:11:58.694Z,99068.22
2019-05-09T08:14:23.378Z,99065.11
2019-05-09T08:16:48.101Z,99064.66
2019-05-09T08:19:12.674Z,99068.97
2019-05-09T08:21:38.271Z,99065.32
2019-05-09T08:24:03.071Z,99063.59
2019-05-09T08:26:29.972Z,99061.51
2019-05-09T08:28:53.831Z,99066.53
2019-05-09T08:31:18.394Z,99070.63
2019-05-09T08:33:42.915Z,99073.73
2019-05-09T08:36:08.658Z,99068.00
2019-05-09T08:38:33.615Z,99068.18
2019-05-09T08:41:08.984Z,99074.40
2019-05-09T08:43:34.050Z,99082.11
2019-05-09T08:45:58.481Z,99084.84
2019-05-09T08:48:22.943Z,99083.28
2019-05-09T08:50:51.724Z,99082.11
2019-05-09T08:53:18.632Z,99088.89
2019-05-09T08:55:42.340Z,99095.61
2019-05-09T08:58:08.020Z,99092.61
2019-05-09T09:00:32.761Z,99097.92
2019-05-09T09:02:57.654Z,99095.18
2019-05-09T09:05:22.279Z,99101.66
2019-05-09T09:07:48.638Z,99096.18
2019-05-09T09:10:13.558Z,99092.80
2019-05-09T09:12:38.536Z,99094.84
2019-05-09T09:15:03.293Z,99101.23
2019-05-09T09:17:28.083Z,99094.25
2019-05-09T09:19:52.793Z,99099.96
2019-05-09T09:22:18.031Z,99092.57
2019-05-09T09:24:42.649Z,99087.58
2019-05-09T09:27:07.842Z,99086.58
2019-05-09T09:29:32.358Z,99089.75
2019-05-09T09:31:57.677Z,99087.37
2019-05-09T09:34:22.150Z,99081.30
2019-05-09T09:36:48.066Z,99086.64
2019-05-09T09:39:12.880Z,99084.55
2019-05-09T09:41:38.684Z,99085.90
2019-05-09T09:44:03.641Z,99096.63
2019-05-09T09:46:28.715Z,99088.66
2019-05-09T09:48:53.370Z,99089.62
2019-05-09T09:51:18.825Z,99089.88
2019-05-09T09:53:43.562Z,99090.12
2019-05-09T09:56:08.697Z,99095.14
2019-05-09T09:58:33.477Z,99093.97
2019-05-09T10:01:03.694Z,99093.14
2019-05-09T10:03:29.193Z,99088.92
2019-05-09T10:05:53.791Z,99095.20
2019-05-09T10:08:18.511Z,99097.42
2019-05-09T10:10:43.085Z,99052.41
2019-05-09T10:13:10.471Z,99089.93
2019-05-09T10:15:51.891Z,99096.29
2019-05-09T10:18:34.170Z,99088.52
2019-05-09T10:21:12.641Z,99094.03
2019-05-09T10:23:37.869Z,99089.55
2019-05-09T10:26:02.493Z,99092.42
2019-05-09T10:28:30.006Z,99098.70
2019-05-09T10:30:53.228Z,99096.83
2019-05-09T10:33:17.701Z,99098.98
2019-05-09T10:35:42.184Z,99098.98
2019-05-09T10:38:08.768Z,99091.77
2019-05-09T10:40:32.945Z,99091.32
2019-05-09T10:42:59.027Z,99097.54
2019-05-09T10:45:25.285Z,99100.52
2019-05-09T10:47:49.721Z,99092.94
2019-05-09T10:50:14.247Z,99097.25
2019-05-09T10:52:38.747Z,99100.47
2019-05-09T10:55:08.797Z,99093.98
2019-05-09T10:57:35.074Z,99090.44
2019-05-09T10:59:59.604Z,99093.50
2019-05-09T11:02:24.113Z,99100.34
2019-05-09T11:04:49.120Z,99096.61
2019-05-09T11:07:13.859Z,99094.60
2019-05-09T11:09:39.073Z,99086.72
2019-05-09T11:12:03.730Z,99066.70
2019-05-09T11:14:36.594Z,99087.51
2019-05-09T11:17:07.794Z,99083.95
2019-05-09T11:19:20.795Z,99082.53
2019-05-09T11:21:47.713Z,99092.33
2019-05-09T11:24:11.361Z,99082.84
2019-05-09T11:26:35.817Z,99075.70
2019-05-09T11:29:00.254Z,99080.22
2019-05-09T11:31:24.774Z,99078.80
2019-05-09T11:33:49.196Z,99076.59
2019-05-09T11:36:14.747Z,99077.89
2019-05-09T11:38:43.906Z,99083.19
2019-05-09T11:41:08.276Z,99082.18
2019-05-09T11:43:32.595Z,99082.70
2019-05-09T11:45:58.676Z,99080.17
2019-05-09T11:48:23.424Z,99088.08
2019-05-09T11:50:47.892Z,99079.73
2019-05-09T11:53:12.414Z,99077.09
2019-05-09T11:55:42.908Z,99079.88
2019-05-09T11:58:03.208Z,99071.36
2019-05-09T12:00:29.395Z,99078.48
2019-05-09T12:02:54.127Z,99079.98
2019-05-09T12:05:19.371Z,99084.11
2019-05-09T12:07:43.960Z,99077.13
2019-05-09T12:10:08.570Z,99076.41
2019-05-09T12:12:33.016Z,99073.83
2019-05-09T12:14:58.120Z,99051.92
2019-05-09T12:17:22.971Z,99067.00
2019-05-09T12:19:48.968Z,99076.63
2019-05-09T12:22:13.655Z,99079.82
2019-05-09T12:24:38.565Z,99068.31
2019-05-09T12:27:03.359Z,99071.53
2019-05-09T12:29:28.738Z,99069.98
2019-05-09T12:31:53.470Z,99076.58
2019-05-09T12:34:19.348Z,99083.92
2019-05-09T12:36:44.219Z,99078.55
2019-05-09T12:39:09.056Z,99078.16
2019-05-09T12:41:33.560Z,99076.91
2019-05-09T12:43:58.090Z,99083.79
2019-05-09T12:46:22.615Z,99076.98
2019-05-09T12:48:48.140Z,99076.62
2019-05-09T12:51:12.989Z,99078.92
2019-05-09T12:53:39.620Z,99076.48
2019-05-09T12:56:03.820Z,99069.09
2019-05-09T12:58:28.819Z,99081.20
2019-05-09T13:00:53.355Z,99082.20
2019-05-09T13:03:17.951Z,99076.63
2019-05-09T13:05:42.437Z,99075.46
2019-05-09T13:08:10.200Z,99074.38
2019-05-09T13:10:33.148Z,99074.34
2019-05-09T13:12:57.595Z,99071.59
2019-05-09T13:15:23.910Z,99068.91
2019-05-09T13:17:50.111Z,99074.44
2019-05-09T13:20:17.890Z,99068.52
2019-05-09T13:22:42.665Z,99070.36
2019-05-09T13:25:09.649Z,99068.77
2019-05-09T13:27:33.925Z,99070.57
2019-05-09T13:29:58.675Z,99063.11
2019-05-09T13:32:23.388Z,99060.62
2019-05-09T13:34:53.343Z,99062.59
2019-05-09T13:37:19.985Z,99064.11
2019-05-09T13:39:44.493Z,99066.93
2019-05-09T13:42:09.042Z,99073.27
2019-05-09T13:44:33.550Z,99060.70
2019-05-09T13:46:58.490Z,99060.39
2019-05-09T13:49:22.980Z,99059.20
2019-05-09T13:51:57.392Z,99054.88
2019-05-09T13:54:13.774Z,99067.90
2019-05-09T13:56:38.324Z,99055.61
2019-05-09T13:59:03.481Z,99055.87
2019-05-09T14:01:28.041Z,99061.49
2019-05-09T14:03:53.505Z,99058.44
2019-05-09T14:06:18.022Z,99060.36
2019-05-09T14:08:42.504Z,99062.92
2019-05-09T14:11:08.393Z,99059.79
2019-05-09T14:13:33.223Z,99063.64
2019-05-09T14:15:57.757Z,99068.31
2019-05-09T14:18:22.323Z,99069.97
2019-05-09T14:20:46.744Z,99065.59
2019-05-09T14:23:11.798Z,99073.84
2019-05-09T14:25:38.132Z,99070.94
2019-05-09T14:28:02.547Z,99064.48
2019-05-09T14:30:27.619Z,99073.27
2019-05-09T14:32:53.368Z,99067.75
2019-05-09T14:35:18.271Z,99067.56
2019-05-09T14:37:42.898Z,99065.72
2019-05-09T14:40:10.139Z,99072.66
2019-05-09T14:42:34.025Z,99072.63
2019-05-09T14:44:58.629Z,99076.77
2019-05-09T14:47:23.142Z,99080.69
2019-05-09T14:49:49.992Z,99077.00
2019-05-09T14:52:13.888Z,99069.98
2019-05-09T14:54:39.159Z,99080.93
2019-05-09T14:57:03.734Z,99077.13
2019-05-09T14:59:28.736Z,99071.64
2019-05-09T15:01:53.337Z,99077.71
2019-05-09T15:04:18.883Z,99082.41
2019-05-09T15:06:43.539Z,99084.39
2019-05-09T15:09:08.920Z,99084.37
2019-05-09T15:11:33.433Z,99090.57
2019-05-09T15:13:58.601Z,99088.98
2019-05-09T15:16:23.239Z,99091.63
2019-05-09T15:18:48.691Z,99080.20
2019-05-09T15:21:13.432Z,99079.95
2019-05-09T15:23:39.219Z,99084.78
2019-05-09T15:26:03.818Z,99090.12
2019-05-09T15:28:29.136Z,99082.44
2019-05-09T15:30:53.764Z,99088.78
2019-05-09T15:33:18.301Z,99080.14
2019-05-09T15:35:42.914Z,99082.50
2019-05-09T15:38:08.592Z,99078.69
2019-05-09T15:40:33.525Z,99073.54
2019-05-09T15:42:58.848Z,99074.62
2019-05-09T15:45:28.471Z,99069.63
2019-05-09T15:47:53.127Z,99076.26
2019-05-09T15:50:22.734Z,99071.78
2019-05-09T15:52:44.179Z,99073.05
2019-05-09T15:55:09.690Z,99080.70
2019-05-09T15:57:34.288Z,99075.81
2019-05-09T15:59:58.998Z,99054.55
2019-05-09T16:02:23.794Z,99085.70
2019-05-09T16:04:48.268Z,99083.97
2019-05-09T16:07:13.527Z,99079.49
2019-05-09T16:09:38.049Z,99082.64
2019-05-09T16:12:04.218Z,99049.55
2019-05-09T16:14:28.661Z,99081.56
2019-05-09T16:16:53.201Z,99081.67
2019-05-09T16:19:17.656Z,99084.16
2019-05-09T16:21:42.151Z,99086.59
2019-05-09T16:24:08.158Z,99091.25
2019-05-09T16:26:32.995Z,99086.47
2019-05-09T16:28:58.139Z,99083.70
2019-05-09T16:31:22.865Z,99087.48
2019-05-09T16:33:47.766Z,99083.12
2019-05-09T16:36:12.399Z,99090.09
2019-05-09T16:38:45.136Z,99091.36
2019-05-09T16:41:03.006Z,99091.20
2019-05-09T16:43:27.828Z,99086.79
2019-05-09T16:45:52.449Z,99094.05
2019-05-09T16:48:18.534Z,99087.72
2019-05-09T16:50:59.338Z,99093.85
2019-05-09T16:53:09.900Z,99091.25
2019-05-09T16:55:38.130Z,99090.05
2019-05-09T16:58:02.571Z,99085.40
2019-05-09T17:00:39.037Z,99086.94
2019-05-09T17:03:03.624Z,99095.97
2019-05-09T17:05:28.103Z,99093.31
2019-05-09T17:07:52.673Z,99094.27
2019-05-09T17:10:17.690Z,99097.67
2019-05-09T17:12:42.634Z,99097.23
2019-05-09T17:15:08.556Z,99102.92
2019-05-09T17:17:33.341Z,99102.15
2019-05-09T17:19:57.791Z,99100.19
2019-05-09T17:22:24.006Z,99105.44
2019-05-09T17:24:49.115Z,99101.72
2019-05-09T17:27:14.366Z,99105.28
2019-05-09T17:29:39.685Z,99108.52
2019-05-09T17:32:04.521Z,99110.60
2019-05-09T17:34:29.027Z,99105.84
2019-05-09T17:36:53.478Z,99111.00
2019-05-09T17:39:18.659Z,99119.11
2019-05-09T17:41:43.188Z,99120.67
2019-05-09T17:44:07.804Z,99120.00
2019-05-09T17:46:32.285Z,99119.63
2019-05-09T17:48:58.319Z,99123.59
2019-05-09T17:51:33.007Z,99123.60
2019-05-09T17:53:52.033Z,99126.30
2019-05-09T17:56:15.480Z,99129.99
2019-05-09T17:58:40.015Z,99134.72
2019-05-09T18:01:04.630Z,99135.53
2019-05-09T18:03:29.394Z,99136.91
2019-05-09T18:05:54.160Z,99145.20
2019-05-09T18:08:18.981Z,99147.27
2019-05-09T18:10:43.764Z,99151.92
2019-05-09T18:13:08.372Z,99157.23
2019-05-09T18:15:32.914Z,99157.27
2019-05-09T18:17:58.569Z,99162.58
2019-05-09T18:20:23.305Z,99159.98
2019-05-09T18:22:48.095Z,99159.23
2019-05-09T18:25:13.350Z,99162.73
2019-05-09T18:27:37.987Z,99166.06
2019-05-09T18:30:02.597Z,99163.49
2019-05-09T18:32:40.632Z,99174.50
2019-05-09T18:35:20.384Z,99166.13
2019-05-09T18:37:44.974Z,99169.23
2019-05-09T18:40:09.934Z,99181.15
2019-05-09T18:42:34.471Z,99175.45
2019-05-09T18:44:59.622Z,99178.52
2019-05-09T18:47:24.211Z,99183.23
2019-05-09T18:49:48.765Z,99174.16
2019-05-09T18:52:13.286Z,99186.31
2019-05-09T18:54:37.753Z,99182.34
2019-05-09T18:57:02.317Z,99191.06
2019-05-09T18:59:26.846Z,99184.86
2019-05-09T19:01:51.631Z,99199.50
2019-05-09T19:04:16.093Z,99186.10
2019-05-09T19:06:40.635Z,99202.61
2019-05-09T19:09:07.041Z,99211.74
2019-05-09T19:11:31.544Z,99217.30
2019-05-09T19:13:57.041Z,99216.96
2019-05-09T19:16:25.955Z,99219.69
2019-05-09T19:18:52.062Z,99220.80
2019-05-09T19:21:20.923Z,99224.59
2019-05-09T19:23:45.458Z,99219.27
2019-05-09T19:26:11.572Z,99227.40
2019-05-09T19:28:36.028Z,99231.82
2019-05-09T19:31:00.489Z,99234.80
2019-05-09T19:33:25.081Z,99234.53
2019-05-09T19:35:51.099Z,99240.56
2019-05-09T19:38:15.544Z,99242.16
2019-05-09T19:40:40.082Z,99242.96
2019-05-09T19:43:04.659Z,99241.23
2019-05-09T19:45:29.254Z,99243.86
2019-05-09T19:47:53.841Z,99247.29
2019-05-09T19:50:19.971Z,99242.12
2019-05-09T19:52:44.420Z,99247.92
2019-05-09T19:55:09.457Z,99227.08
2019-05-09T19:57:34.058Z,99245.52
2019-05-09T19:59:58.640Z,99250.28
2019-05-09T20:02:23.267Z,99255.98
2019-05-09T20:04:47.708Z,99259.56
2019-05-09T20:07:12.197Z,99259.82
2019-05-09T20:09:38.286Z,99254.67
2019-05-09T20:12:19.488Z,99258.77
2019-05-09T20:14:45.723Z,99258.86
2019-05-09T20:17:10.285Z,99266.09
2019-05-09T20:19:34.718Z,99262.87
2019-05-09T20:21:59.263Z,99269.26
2019-05-09T20:24:23.815Z,99233.69
2019-05-09T20:26:48.429Z,99267.95
2019-05-09T20:29:12.912Z,99269.13
2019-05-09T20:31:37.387Z,99271.25
2019-05-09T20:34:01.928Z,99278.59
2019-05-09T20:36:26.374Z,99278.20
2019-05-09T20:38:51.016Z,99280.31
2019-05-09T20:41:15.769Z,99280.20
2019-05-09T20:43:40.411Z,99287.98
2019-05-09T20:46:05.124Z,99284.55
2019-05-09T20:48:29.748Z,99248.98
2019-05-09T20:50:54.393Z,99288.34
2019-05-09T20:53:19.027Z,99294.52
2019-05-09T20:55:43.663Z,99292.44
2019-05-09T20:58:08.315Z,99302.16
2019-05-09T21:00:33.075Z,99301.09
2019-05-09T21:02:57.799Z,99307.37
2019-05-09T21:05:22.616Z,99306.75
2019-05-09T21:07:47.303Z,99309.95
2019-05-09T21:10:12.266Z,99309.56
2019-05-09T21:12:37.166Z,99313.11
2019-05-09T21:15:01.810Z,99315.95
2019-05-09T21:17:26.443Z,99317.31
2019-05-09T21:19:51.067Z,99322.33
2019-05-09T21:22:15.722Z,99323.21
2019-05-09T21:24:40.482Z,99324.86
2019-05-09T21:27:05.132Z,99320.27
2019-05-09T21:29:29.759Z,99286.38
2019-05-09T21:31:54.532Z,99320.55
2019-05-09T21:34:19.171Z,99319.77
2019-05-09T21:36:43.724Z,99322.97
2019-05-09T21:39:08.224Z,99323.23
2019-05-09T21:41:32.712Z,99322.86
2019-05-09T21:43:57.153Z,99317.77
2019-05-09T21:46:21.665Z,99321.19
2019-05-09T21:48:46.133Z,99328.34
2019-05-09T21:51:10.574Z,99329.23
2019-05-09T21:53:40.762Z,99333.58
2019-05-09T21:56:01.233Z,99298.63
2019-05-09T21:58:25.686Z,99338.28
2019-05-09T22:00:53.162Z,99336.89
2019-05-09T22:03:17.843Z,99337.64
2019-05-09T22:05:42.520Z,99342.97
2019-05-09T22:08:07.179Z,99344.28
2019-05-09T22:10:31.687Z,99341.77
2019-05-09T22:12:56.234Z,99350.34
2019-05-09T22:15:20.871Z,99354.39
2019-05-09T22:17:45.404Z,99350.34
2019-05-09T22:20:12.341Z,99347.06
2019-05-09T22:22:36.954Z,99351.92
2019-05-09T22:25:01.383Z,99351.01
2019-05-09T22:27:25.844Z,99348.75
2019-05-09T22:29:50.404Z,99356.23
2019-05-09T22:32:14.880Z,99361.86
2019-05-09T22:34:39.313Z,99361.97
2019-05-09T22:37:03.776Z,99361.16
2019-05-09T22:39:28.206Z,99360.75
2019-05-09T22:41:52.654Z,99360.64
2019-05-09T22:44:17.185Z,99363.59
2019-05-09T22:46:41.631Z,99366.66
2019-05-09T22:49:06.231Z,99367.40
2019-05-09T22:51:30.729Z,99369.48
2019-05-09T22:54:10.274Z,99372.05
2019-05-09T22:56:21.418Z,99378.47
2019-05-09T22:58:46.029Z,99375.44
2019-05-09T23:01:10.554Z,99377.08
2019-05-09T23:03:35.022Z,99379.62
2019-05-09T23:05:59.529Z,99375.03
2019-05-09T23:08:24.055Z,99375.95
2019-05-09T23:10:48.759Z,99371.30
2019-05-09T23:13:13.302Z,99374.37
2019-05-09T23:15:37.841Z,99371.47
2019-05-09T23:18:08.615Z,99378.55
2019-05-09T23:20:40.669Z,99371.68
2019-05-09T23:23:06.904Z,99375.02
2019-05-09T23:25:31.350Z,99369.25
2019-05-09T23:27:55.786Z,99370.92
2019-05-09T23:30:20.237Z,99374.30
2019-05-09T23:32:45.989Z,99372.27
2019-05-09T23:35:10.583Z,99377.21
2019-05-09T23:37:35.153Z,99370.52
2019-05-09T23:39:59.622Z,99373.98
2019-05-09T23:42:24.124Z,99373.38
2019-05-09T23:44:48.643Z,99372.89
2019-05-09T23:47:13.639Z,99373.50
2019-05-09T23:49:38.093Z,99373.34
2019-05-09T23:52:02.556Z,99375.30
2019-05-09T23:54:46.960Z,99371.03
2019-05-09T23:57:29.441Z,99367.09
